createdAt,value
2022-11-13T00:01:16.841Z,3.20
2022-11-13T00:03:43.854Z,3.20
2022-11-13T00:06:12.422Z,3.10
2022-11-13T00:08:39.534Z,3.20
2022-11-13T00:11:09.791Z,3.20
2022-11-13T00:13:36.759Z,3.20
2022-11-13T00:16:07.326Z,3.20
2022-11-13T00:18:38.053Z,3.20
2022-11-13T00:21:17.737Z,3.20
2022-11-13T00:23:44.865Z,3.10
2022-11-13T00:26:20.722Z,3.10
2022-11-13T00:28:52.583Z,3.10
2022-11-13T00:31:19.210Z,3.10
2022-11-13T00:34:09.056Z,3.10
2022-11-13T00:36:32.483Z,3.10
2022-11-13T00:38:59.524Z,3.10
2022-11-13T00:41:30.242Z,3.10
2022-11-13T00:43:56.822Z,3.10
2022-11-13T00:46:23.417Z,3.10
2022-11-13T00:48:50.027Z,3.10
2022-11-13T00:51:16.710Z,3.00
2022-11-13T00:53:44.347Z,3.00
2022-11-13T00:56:11.128Z,3.00
2022-11-13T00:58:37.742Z,3.00
2022-11-13T01:01:14.660Z,3.00
2022-11-13T01:03:41.506Z,2.90
2022-11-13T01:06:18.020Z,2.90
2022-11-13T01:08:45.010Z,2.90
2022-11-13T01:11:18.782Z,2.90
2022-11-13T01:13:48.950Z,2.90
2022-11-13T01:16:18.460Z,2.90
2022-11-13T01:18:45.466Z,2.90
2022-11-13T01:21:19.395Z,2.90
2022-11-13T01:23:46.342Z,2.90
2022-11-13T01:26:20.350Z,2.80
2022-11-13T01:28:48.168Z,2.80
2022-11-13T01:31:18.987Z,2.80
2022-11-13T01:33:47.690Z,2.80
2022-11-13T01:36:24.974Z,2.80
2022-11-13T01:38:52.281Z,2.70
2022-11-13T01:41:33.886Z,2.70
2022-11-13T01:44:01.715Z,2.70
2022-11-13T01:46:34.380Z,2.70
2022-11-13T01:49:10.109Z,2.70
2022-11-13T01:51:41.747Z,2.70
2022-11-13T01:54:19.540Z,2.70
2022-11-13T01:56:46.824Z,2.70
2022-11-13T01:59:17.810Z,2.60
2022-11-13T02:01:45.017Z,2.60
2022-11-13T02:04:11.883Z,2.60
2022-11-13T02:07:01.077Z,2.60
2022-11-13T02:09:33.683Z,2.50
2022-11-13T02:12:01.255Z,2.50
2022-11-13T02:14:29.181Z,2.60
2022-11-13T02:17:01.063Z,2.60
2022-11-13T02:19:38.671Z,2.50
2022-11-13T02:22:19.523Z,2.50
2022-11-13T02:24:49.868Z,2.50
2022-11-13T02:27:34.776Z,2.50
2022-11-13T02:30:29.155Z,2.40
2022-11-13T02:32:57.658Z,2.40
2022-11-13T02:35:32.681Z,2.30
2022-11-13T02:38:02.587Z,2.40
2022-11-13T02:40:29.729Z,2.40
2022-11-13T02:42:56.377Z,2.40
2022-11-13T02:45:23.000Z,2.40
2022-11-13T02:47:49.811Z,2.40
2022-11-13T02:50:17.708Z,2.30
2022-11-13T02:52:44.602Z,2.30
2022-11-13T02:55:11.371Z,2.30
2022-11-13T02:57:38.056Z,2.30
2022-11-13T03:00:09.193Z,2.20
2022-11-13T03:02:40.096Z,2.20
2022-11-13T03:05:12.339Z,2.20
2022-11-13T03:07:39.382Z,2.20
2022-11-13T03:10:06.894Z,2.20
2022-11-13T03:12:34.281Z,2.20
2022-11-13T03:15:03.573Z,2.20
2022-11-13T03:17:35.888Z,2.20
2022-11-13T03:20:09.136Z,2.20
2022-11-13T03:22:45.707Z,2.20
2022-11-13T03:25:22.287Z,2.30
2022-11-13T03:27:48.916Z,2.30
2022-11-13T03:30:15.707Z,2.40
2022-11-13T03:32:42.308Z,2.40
2022-11-13T03:35:09.103Z,2.40
2022-11-13T03:37:35.723Z,2.40
2022-11-13T03:40:02.335Z,2.40
2022-11-13T03:42:28.919Z,2.40
2022-11-13T03:44:55.491Z,2.40
2022-11-13T03:47:22.086Z,2.40
2022-11-13T03:49:48.840Z,2.30
2022-11-13T03:52:15.483Z,2.20
2022-11-13T03:54:42.059Z,2.20
2022-11-13T03:57:08.667Z,2.30
2022-11-13T03:59:35.239Z,2.20
2022-11-13T04:02:01.844Z,2.20
2022-11-13T04:04:28.446Z,2.20
2022-11-13T04:06:55.090Z,2.10
2022-11-13T04:09:23.178Z,2.10
2022-11-13T04:11:49.891Z,2.10
2022-11-13T04:14:16.850Z,2.10
2022-11-13T04:16:43.443Z,2.10
2022-11-13T04:19:12.311Z,2.10
2022-11-13T04:21:38.906Z,2.10
2022-11-13T04:24:05.783Z,2.10
2022-11-13T04:26:32.348Z,2.10
2022-11-13T04:28:58.923Z,2.10
2022-11-13T04:31:25.650Z,2.20
2022-11-13T04:33:52.225Z,2.20
2022-11-13T04:36:18.791Z,2.20
2022-11-13T04:38:45.384Z,2.20
2022-11-13T04:41:32.156Z,2.10
2022-11-13T04:43:58.778Z,2.10
2022-11-13T04:46:25.373Z,2.10
2022-11-13T04:48:51.936Z,2.20
2022-11-13T04:51:18.514Z,2.10
2022-11-13T04:53:45.111Z,2.10
2022-11-13T04:56:13.643Z,2.10
2022-11-13T04:58:40.347Z,2.10
2022-11-13T05:01:06.969Z,2.00
2022-11-13T05:03:33.575Z,2.00
2022-11-13T05:06:09.459Z,2.00
2022-11-13T05:08:36.767Z,2.00
2022-11-13T05:11:04.100Z,1.90
2022-11-13T05:13:32.930Z,1.90
2022-11-13T05:16:07.868Z,1.80
2022-11-13T05:18:37.159Z,1.80
2022-11-13T05:21:06.110Z,1.80
2022-11-13T05:23:33.779Z,1.80
2022-11-13T05:26:03.489Z,1.80
2022-11-13T05:28:30.640Z,1.70
2022-11-13T05:31:13.564Z,1.70
2022-11-13T05:33:41.291Z,1.70
2022-11-13T05:36:15.515Z,1.70
2022-11-13T05:38:43.091Z,1.60
2022-11-13T05:41:16.247Z,1.60
2022-11-13T05:43:43.417Z,1.60
2022-11-13T05:46:14.515Z,1.60
2022-11-13T05:48:41.878Z,1.60
2022-11-13T05:51:18.627Z,1.60
2022-11-13T05:53:45.882Z,1.60
2022-11-13T05:56:25.832Z,1.70
2022-11-13T05:58:54.387Z,1.60
2022-11-13T06:01:26.152Z,1.60
2022-11-13T06:03:55.696Z,1.60
2022-11-13T06:06:24.306Z,1.60
2022-11-13T06:08:52.855Z,1.60
2022-11-13T06:11:25.306Z,1.60
2022-11-13T06:13:53.740Z,1.60
2022-11-13T06:16:29.887Z,1.50
2022-11-13T06:19:03.404Z,1.60
2022-11-13T06:21:32.310Z,1.50
2022-11-13T06:24:00.328Z,1.50
2022-11-13T06:26:33.961Z,1.40
2022-11-13T06:29:02.410Z,1.40
2022-11-13T06:31:33.199Z,1.40
2022-11-13T06:34:01.017Z,1.40
2022-11-13T06:36:35.009Z,1.30
2022-11-13T06:39:02.124Z,1.30
2022-11-13T06:41:31.235Z,1.40
2022-11-13T06:44:02.730Z,1.40
2022-11-13T06:46:31.353Z,1.40
2022-11-13T06:48:58.575Z,1.50
2022-11-13T06:51:29.161Z,1.50
2022-11-13T06:53:56.901Z,1.60
2022-11-13T06:56:24.184Z,1.60
2022-11-13T06:58:50.971Z,1.60
2022-11-13T07:01:22.874Z,1.60
2022-11-13T07:03:49.683Z,1.70
2022-11-13T07:06:20.684Z,1.70
2022-11-13T07:08:47.584Z,1.60
2022-11-13T07:11:17.522Z,1.60
2022-11-13T07:13:45.041Z,1.60
2022-11-13T07:16:17.432Z,1.60
2022-11-13T07:18:50.128Z,1.60
2022-11-13T07:21:17.103Z,1.70
2022-11-13T07:23:44.415Z,1.70
2022-11-13T07:26:11.647Z,1.70
2022-11-13T07:28:39.059Z,1.70
2022-11-13T07:31:06.902Z,1.70
2022-11-13T07:33:33.937Z,1.70
2022-11-13T07:36:00.982Z,1.80
2022-11-13T07:38:27.968Z,1.80
2022-11-13T07:40:54.781Z,1.80
2022-11-13T07:43:21.402Z,1.90
2022-11-13T07:45:54.212Z,2.00
2022-11-13T07:48:22.280Z,2.00
2022-11-13T07:50:50.088Z,2.10
2022-11-13T07:53:17.252Z,2.20
2022-11-13T07:55:43.815Z,2.20
2022-11-13T07:58:10.773Z,2.30
2022-11-13T08:00:37.487Z,2.40
2022-11-13T08:03:12.837Z,2.50
2022-11-13T08:05:40.743Z,2.60
2022-11-13T08:08:08.522Z,2.60
2022-11-13T08:10:36.414Z,2.70
2022-11-13T08:13:06.649Z,2.90
2022-11-13T08:15:34.624Z,2.90
2022-11-13T08:18:03.634Z,3.10
2022-11-13T08:20:32.593Z,3.20
2022-11-13T08:23:03.301Z,3.30
2022-11-13T08:25:31.684Z,3.40
2022-11-13T08:27:59.172Z,3.50
2022-11-13T08:30:28.510Z,3.50
2022-11-13T08:32:55.262Z,3.60
2022-11-13T08:35:26.548Z,3.80
2022-11-13T08:38:01.994Z,3.90
2022-11-13T08:40:28.616Z,4.00
2022-11-13T08:43:03.890Z,4.10
2022-11-13T08:45:30.854Z,4.20
2022-11-13T08:48:04.856Z,4.30
2022-11-13T08:50:33.824Z,4.50
2022-11-13T08:53:01.718Z,4.50
2022-11-13T08:55:28.751Z,4.60
2022-11-13T08:58:00.053Z,4.70
2022-11-13T09:00:28.510Z,4.90
2022-11-13T09:02:57.084Z,5.00
2022-11-13T09:05:24.802Z,5.10
2022-11-13T09:07:51.867Z,5.30
2022-11-13T09:10:18.730Z,5.40
2022-11-13T09:12:45.340Z,5.60
2022-11-13T09:15:12.308Z,5.70
2022-11-13T09:17:39.016Z,5.80
2022-11-13T09:20:11.256Z,6.00
2022-11-13T09:22:40.080Z,6.10
2022-11-13T09:25:07.486Z,6.20
2022-11-13T09:27:34.105Z,6.50
2022-11-13T09:30:00.744Z,6.70
2022-11-13T09:32:27.349Z,6.90
2022-11-13T09:34:53.916Z,7.10
2022-11-13T09:37:20.524Z,7.40
2022-11-13T09:39:47.089Z,7.60
2022-11-13T09:42:22.485Z,7.80
2022-11-13T09:44:55.945Z,7.90
2022-11-13T09:47:31.914Z,8.00
2022-11-13T09:50:17.829Z,8.10
2022-11-13T09:52:45.860Z,8.20
2022-11-13T09:55:16.444Z,8.30
2022-11-13T09:58:11.735Z,8.50
2022-11-13T10:00:38.817Z,8.50
2022-11-13T10:06:58.864Z,8.40
2022-11-13T10:09:51.746Z,8.40
2022-11-13T10:12:19.328Z,8.50
2022-11-13T10:14:51.158Z,8.50
2022-11-13T10:17:39.650Z,8.70
2022-11-13T10:20:15.905Z,8.80
2022-11-13T10:22:57.017Z,8.70
2022-11-13T10:25:30.514Z,8.70
2022-11-13T10:28:00.279Z,8.70
2022-11-13T10:30:30.905Z,8.70
2022-11-13T10:33:05.708Z,8.70
2022-11-13T10:35:38.089Z,8.80
2022-11-13T10:38:24.534Z,8.80
2022-11-13T10:40:52.171Z,8.80
2022-11-13T10:43:23.505Z,8.90
2022-11-13T10:46:03.725Z,8.90
2022-11-13T10:48:36.410Z,9.00
2022-11-13T10:51:30.017Z,9.00
2022-11-13T10:53:59.334Z,9.10
2022-11-13T10:56:32.896Z,9.20
2022-11-13T10:59:19.863Z,9.40
2022-11-13T11:01:47.749Z,9.30
2022-11-13T11:04:27.278Z,9.40
2022-11-13T11:07:19.144Z,9.40
2022-11-13T11:09:43.987Z,9.50
2022-11-13T11:12:30.915Z,9.50
2022-11-13T11:15:00.557Z,9.50
2022-11-13T11:17:44.372Z,9.50
2022-11-13T11:20:47.029Z,9.40
2022-11-13T11:23:27.129Z,9.50
2022-11-13T11:26:00.199Z,9.60
2022-11-13T11:28:36.196Z,9.60
2022-11-13T11:31:22.049Z,9.70
2022-11-13T11:33:55.078Z,9.80
2022-11-13T11:36:31.751Z,9.80
2022-11-13T11:39:46.338Z,10.00
2022-11-13T11:42:40.439Z,10.10
2022-11-13T11:45:26.578Z,10.20
2022-11-13T11:47:54.150Z,10.50
2022-11-13T11:50:56.994Z,10.80
2022-11-13T11:54:05.579Z,11.00
2022-11-13T11:56:57.328Z,11.00
2022-11-13T11:59:33.867Z,11.20
2022-11-13T12:02:06.178Z,11.30
2022-11-13T12:05:14.372Z,11.30
2022-11-13T12:08:22.215Z,11.30
2022-11-13T12:11:01.483Z,11.40
2022-11-13T12:13:37.049Z,11.40
2022-11-13T12:16:31.867Z,11.50
2022-11-13T12:19:26.187Z,11.50
2022-11-13T12:22:21.415Z,11.50
2022-11-13T12:25:16.790Z,11.50
2022-11-13T12:27:59.333Z,11.60
2022-11-13T12:30:57.604Z,11.60
2022-11-13T12:34:01.131Z,11.70
2022-11-13T12:36:29.226Z,11.80
2022-11-13T12:39:30.623Z,11.80
2022-11-13T12:42:13.147Z,11.90
2022-11-13T12:45:21.115Z,11.90
2022-11-13T12:47:49.951Z,12.00
2022-11-13T12:50:31.866Z,11.90
2022-11-13T12:53:08.303Z,11.90
2022-11-13T12:55:38.515Z,11.90
2022-11-13T12:58:30.875Z,11.80
2022-11-13T13:01:14.387Z,11.70
2022-11-13T13:03:40.951Z,11.70
2022-11-13T13:07:02.245Z,11.80
2022-11-13T13:09:53.490Z,11.90
2022-11-13T13:12:58.702Z,12.00
2022-11-13T13:15:40.835Z,12.00
2022-11-13T13:18:31.808Z,11.90
2022-11-13T13:21:07.930Z,11.90
2022-11-13T13:23:44.391Z,11.90
2022-11-13T13:26:25.220Z,11.80
2022-11-13T13:29:08.106Z,11.80
2022-11-13T13:31:47.081Z,11.80
2022-11-13T13:34:55.229Z,11.70
2022-11-13T13:37:44.385Z,11.50
2022-11-13T13:40:33.086Z,11.40
2022-11-13T13:43:42.435Z,11.30
2022-11-13T13:46:21.870Z,11.20
2022-11-13T13:48:53.063Z,11.00
2022-11-13T13:51:39.716Z,11.00
2022-11-13T13:54:08.520Z,11.00
2022-11-13T13:56:41.401Z,10.90
2022-11-13T13:59:29.550Z,10.90
2022-11-13T14:02:01.921Z,10.80
2022-11-13T14:04:43.593Z,10.70
2022-11-13T14:07:29.487Z,10.70
2022-11-13T14:10:12.853Z,10.60
2022-11-13T14:12:44.273Z,10.50
2022-11-13T14:15:29.470Z,10.30
2022-11-13T14:18:08.593Z,10.20
2022-11-13T14:20:54.890Z,10.10
2022-11-13T14:23:28.462Z,10.00
2022-11-13T14:25:56.327Z,9.90
2022-11-13T14:28:27.747Z,9.80
2022-11-13T14:31:07.436Z,9.80
2022-11-13T14:33:44.730Z,9.70
2022-11-13T14:36:12.479Z,9.60
2022-11-13T14:38:50.562Z,9.50
2022-11-13T14:41:37.670Z,9.40
2022-11-13T14:44:04.674Z,9.30
2022-11-13T14:46:44.379Z,9.20
2022-11-13T14:49:34.120Z,9.10
2022-11-13T14:52:01.262Z,9.00
2022-11-13T14:54:59.997Z,9.00
2022-11-13T14:57:21.483Z,8.90
2022-11-13T14:59:48.157Z,8.80
2022-11-13T15:02:14.793Z,8.70
2022-11-13T15:04:41.421Z,8.60
2022-11-13T15:07:31.037Z,8.60
2022-11-13T15:09:59.111Z,8.50
2022-11-13T15:12:26.289Z,8.50
2022-11-13T15:14:53.002Z,8.40
2022-11-13T15:17:22.148Z,8.40
2022-11-13T15:19:52.765Z,8.30
2022-11-13T15:22:27.138Z,8.20
2022-11-13T15:24:54.800Z,8.20
2022-11-13T15:27:21.784Z,8.10
2022-11-13T15:29:52.210Z,8.00
2022-11-13T15:32:18.813Z,7.90
2022-11-13T15:34:45.436Z,7.90
2022-11-13T15:37:15.113Z,7.80
2022-11-13T15:39:42.283Z,7.70
2022-11-13T15:42:15.072Z,7.60
2022-11-13T15:44:41.727Z,7.50
2022-11-13T15:47:36.323Z,7.40
2022-11-13T15:50:14.962Z,7.40
2022-11-13T15:52:46.330Z,7.30
2022-11-13T15:55:40.714Z,7.20
2022-11-13T15:58:18.591Z,7.10
2022-11-13T16:00:45.928Z,7.00
2022-11-13T16:03:12.619Z,6.90
2022-11-13T16:05:39.350Z,6.90
2022-11-13T16:08:12.734Z,6.80
2022-11-13T16:10:39.325Z,6.80
2022-11-13T16:13:05.998Z,6.70
2022-11-13T16:15:32.804Z,6.60
2022-11-13T16:18:00.905Z,6.60
2022-11-13T16:20:27.557Z,6.60
2022-11-13T16:22:54.893Z,6.50
2022-11-13T16:25:22.450Z,6.40
2022-11-13T16:27:49.192Z,6.40
2022-11-13T16:30:23.087Z,6.30
2022-11-13T16:32:49.968Z,6.20
2022-11-13T16:35:20.109Z,6.20
2022-11-13T16:37:47.078Z,6.10
2022-11-13T16:40:25.380Z,6.10
2022-11-13T16:42:52.936Z,6.10
2022-11-13T16:45:21.218Z,6.10
2022-11-13T16:47:48.478Z,6.00
2022-11-13T16:50:29.709Z,6.00
2022-11-13T16:52:56.650Z,5.90
2022-11-13T16:55:23.613Z,5.90
2022-11-13T16:57:50.414Z,5.80
2022-11-13T17:00:19.560Z,5.70
2022-11-13T17:02:49.688Z,5.60
2022-11-13T17:05:17.171Z,5.60
2022-11-13T17:07:44.224Z,5.50
2022-11-13T17:10:30.892Z,5.40
2022-11-13T17:12:58.931Z,5.40
2022-11-13T17:15:25.498Z,5.40
2022-11-13T17:17:58.147Z,5.40
2022-11-13T17:20:25.236Z,5.30
2022-11-13T17:22:51.842Z,5.30
2022-11-13T17:25:18.808Z,5.30
2022-11-13T17:27:45.391Z,5.20
2022-11-13T17:30:13.836Z,5.20
2022-11-13T17:32:40.699Z,5.20
2022-11-13T17:35:08.879Z,5.10
2022-11-13T17:37:35.529Z,5.10
2022-11-13T17:40:02.128Z,5.00
2022-11-13T17:42:28.812Z,5.00
2022-11-13T17:44:55.686Z,5.00
2022-11-13T17:47:22.325Z,4.90
2022-11-13T17:49:48.988Z,4.90
2022-11-13T17:52:15.572Z,4.90
2022-11-13T17:54:42.257Z,4.90
2022-11-13T17:57:10.115Z,4.80
2022-11-13T17:59:36.854Z,4.70
2022-11-13T18:02:03.685Z,4.70
2022-11-13T18:04:30.298Z,4.70
2022-11-13T18:06:57.661Z,4.70
2022-11-13T18:09:24.318Z,4.70
2022-11-13T18:11:50.986Z,4.70
2022-11-13T18:14:18.822Z,4.70
2022-11-13T18:16:45.526Z,4.70
2022-11-13T18:19:12.211Z,4.60
2022-11-13T18:21:40.627Z,4.60
2022-11-13T18:24:16.247Z,4.60
2022-11-13T18:26:43.637Z,4.60
2022-11-13T18:29:10.690Z,4.50
2022-11-13T18:31:37.989Z,4.50
2022-11-13T18:34:06.418Z,4.40
2022-11-13T18:36:34.475Z,4.40
2022-11-13T18:39:04.203Z,4.50
2022-11-13T18:41:32.411Z,4.40
2022-11-13T18:43:59.008Z,4.40
2022-11-13T18:46:25.723Z,4.40
2022-11-13T18:48:52.595Z,4.50
2022-11-13T18:51:23.001Z,4.30
2022-11-13T18:53:52.840Z,4.30
2022-11-13T18:56:23.675Z,4.30
2022-11-13T18:58:52.604Z,4.30
2022-11-13T19:01:31.897Z,4.30
2022-11-13T19:04:22.167Z,4.30
2022-11-13T19:06:50.300Z,4.10
2022-11-13T19:09:17.901Z,4.10
2022-11-13T19:11:45.419Z,4.10
2022-11-13T19:14:17.623Z,4.00
2022-11-13T19:16:44.872Z,4.00
2022-11-13T19:19:21.371Z,4.00
2022-11-13T19:21:48.669Z,4.00
2022-11-13T19:24:16.353Z,3.90
2022-11-13T19:26:44.171Z,3.80
2022-11-13T19:29:11.562Z,3.80
2022-11-13T19:31:38.300Z,3.80
2022-11-13T19:34:07.501Z,3.90
2022-11-13T19:36:35.523Z,3.80
2022-11-13T19:39:06.934Z,3.90
2022-11-13T19:41:33.498Z,3.80
2022-11-13T19:44:00.299Z,3.80
2022-11-13T19:46:33.844Z,3.80
2022-11-13T19:49:00.462Z,3.80
2022-11-13T19:51:27.679Z,3.90
2022-11-13T19:53:57.659Z,3.80
2022-11-13T19:56:26.875Z,3.70
2022-11-13T19:58:53.895Z,3.70
2022-11-13T20:01:26.527Z,3.70
2022-11-13T20:03:59.855Z,3.70
2022-11-13T20:06:28.547Z,3.70
2022-11-13T20:08:55.235Z,3.60
2022-11-13T20:11:21.862Z,3.60
2022-11-13T20:13:50.897Z,3.60
2022-11-13T20:16:20.740Z,3.60
2022-11-13T20:18:48.183Z,3.60
2022-11-13T20:21:15.523Z,3.50
2022-11-13T20:23:42.294Z,3.50
2022-11-13T20:26:13.495Z,3.50
2022-11-13T20:28:42.534Z,3.40
2022-11-13T20:31:20.858Z,3.50
2022-11-13T20:33:49.590Z,3.40
2022-11-13T20:36:17.571Z,3.40
2022-11-13T20:38:50.697Z,3.30
2022-11-13T20:41:20.410Z,3.30
2022-11-13T20:43:48.407Z,3.30
2022-11-13T20:46:18.918Z,3.30
2022-11-13T20:48:46.168Z,3.30
2022-11-13T20:51:16.863Z,3.20
2022-11-13T20:53:43.511Z,3.20
2022-11-13T20:56:10.484Z,3.10
2022-11-13T20:58:38.203Z,3.10
2022-11-13T21:01:11.865Z,3.20
2022-11-13T21:03:42.019Z,3.20
2022-11-13T21:06:11.097Z,3.10
2022-11-13T21:08:38.455Z,3.00
2022-11-13T21:11:07.222Z,3.10
2022-11-13T21:13:34.683Z,3.00
2022-11-13T21:16:09.158Z,3.00
2022-11-13T21:18:37.471Z,3.10
2022-11-13T21:21:13.627Z,3.10
2022-11-13T21:23:40.400Z,3.00
2022-11-13T21:26:08.667Z,3.00
2022-11-13T21:28:36.211Z,3.00
2022-11-13T21:31:06.175Z,3.00
2022-11-13T21:33:40.881Z,3.00
2022-11-13T21:36:20.033Z,3.00
2022-11-13T21:38:49.230Z,3.00
2022-11-13T21:41:22.549Z,2.90
2022-11-13T21:43:49.755Z,3.00
2022-11-13T21:46:17.922Z,3.00
2022-11-13T21:48:45.340Z,2.90
2022-11-13T21:51:12.426Z,2.90
2022-11-13T21:53:39.287Z,2.80
2022-11-13T21:56:09.103Z,2.80
2022-11-13T21:58:40.808Z,2.80
2022-11-13T22:01:09.346Z,2.70
2022-11-13T22:03:36.108Z,2.70
2022-11-13T22:06:21.044Z,2.70
2022-11-13T22:09:21.815Z,2.70
2022-11-13T22:11:48.775Z,2.70
2022-11-13T22:14:15.597Z,2.60
2022-11-13T22:16:44.819Z,2.70
2022-11-13T22:19:22.509Z,2.60
2022-11-13T22:21:52.087Z,2.60
2022-11-13T22:24:19.739Z,2.60
2022-11-13T22:26:47.684Z,2.60
2022-11-13T22:29:14.360Z,2.50
2022-11-13T22:31:41.044Z,2.50
2022-11-13T22:34:07.771Z,2.50
2022-11-13T22:36:36.783Z,2.50
2022-11-13T22:39:04.715Z,2.50
2022-11-13T22:41:33.992Z,2.50
2022-11-13T22:44:05.946Z,2.50
2022-11-13T22:46:35.217Z,2.40
2022-11-13T22:49:04.687Z,2.40
2022-11-13T22:51:38.992Z,2.40
2022-11-13T22:54:11.802Z,2.40
2022-11-13T22:56:40.505Z,2.40
2022-11-13T22:59:10.617Z,2.40
2022-11-13T23:01:39.556Z,2.40
2022-11-13T23:04:10.228Z,2.50
2022-11-13T23:06:37.325Z,2.40
2022-11-13T23:09:05.600Z,2.40
2022-11-13T23:11:38.616Z,2.40
2022-11-13T23:14:11.065Z,2.40
2022-11-13T23:16:38.632Z,2.40
2022-11-13T23:19:05.429Z,2.40
2022-11-13T23:21:32.298Z,2.40
2022-11-13T23:23:59.138Z,2.30
2022-11-13T23:26:27.890Z,2.30
2022-11-13T23:28:54.690Z,2.30
2022-11-13T23:31:21.726Z,2.30
2022-11-13T23:33:48.610Z,2.30
2022-11-13T23:36:17.811Z,2.30
2022-11-13T23:38:44.853Z,2.20
2022-11-13T23:41:11.895Z,2.20
2022-11-13T23:46:25.125Z,2.20
2022-11-13T23:48:51.714Z,2.10
2022-11-13T23:51:19.298Z,2.10
2022-11-13T23:53:45.959Z,2.10
2022-11-13T23:56:12.566Z,2.10
2022-11-13T23:58:39.121Z,2.20
